Time;durP1;ratioP1;P1;durP2;ratioP2;P2;SDS_P1;SDS_P2;PMS_P1;PMS_P2;Temp;Humidity;BMP_temperature;BMP_pressure;BME280_temperature;BME280_humidity;BME280_pressure;Samples;Min_cycle;Max_cycle;Signal;HPM_P1;HPM_P2
2023/07/10 00:00:42;;;;;;;0.00;0.00;;;;;;;20.51;100.00;96905.16;5070682;28;20294;-79
2023/07/10 00:03:28;;;;;;;0.00;0.00;;;;;;;20.35;100.00;96904.59;5056804;28;20563;-79
2023/07/10 00:06:15;;;;;;;0.00;0.00;;;;;;;20.39;100.00;96899.34;5054308;28;20035;-78
2023/07/10 00:09:01;;;;;;;0.00;0.00;;;;;;;20.44;100.00;96910.16;5070975;28;20044;-79
2023/07/10 00:11:49;;;;;;;0.10;0.10;;;;;;;20.27;100.00;96899.84;5054653;28;20040;-79
2023/07/10 00:14:35;;;;;;;0.10;0.10;;;;;;;20.38;100.00;96908.63;5070158;28;20127;-79
2023/07/10 00:17:21;;;;;;;0.00;0.00;;;;;;;20.33;100.00;96900.56;5071510;28;20044;-79
2023/07/10 00:20:16;;;;;;;0.00;0.00;;;;;;;20.36;100.00;96899.97;5071772;28;21154;-79
2023/07/10 00:23:02;;;;;;;0.00;0.00;;;;;;;20.36;100.00;96898.06;5071732;28;20044;-79
2023/07/10 00:25:47;;;;;;;0.00;0.00;;;;;;;20.46;100.00;96897.06;5074764;28;20678;-79
2023/07/10 00:28:34;;;;;;;0.10;0.10;;;;;;;20.36;100.00;96897.25;5074817;28;20047;-77
2023/07/10 00:31:21;;;;;;;0.10;0.00;;;;;;;20.39;100.00;96883.88;5055977;28;20046;-78
2023/07/10 00:34:15;;;;;;;0.00;0.00;;;;;;;20.49;100.00;96891.06;5062920;28;20538;-78
2023/07/10 00:37:00;;;;;;;0.00;0.00;;;;;;;20.43;100.00;96892.22;5075044;28;20032;-79
2023/07/10 00:39:46;;;;;;;0.00;0.00;;;;;;;20.45;100.00;96896.28;5061244;28;20758;-78
2023/07/10 00:42:32;;;;;;;0.00;0.00;;;;;;;20.43;100.00;96895.75;5075023;28;20039;-78
2023/07/10 00:45:20;;;;;;;0.00;0.00;;;;;;;20.30;100.00;96891.91;5073127;28;20086;-79
2023/07/10 00:48:24;;;;;;;0.00;0.00;;;;;;;20.29;100.00;96881.34;5073940;28;20097;-79
2023/07/10 00:51:18;;;;;;;0.00;0.00;;;;;;;20.30;100.00;96882.94;5073593;28;20032;-77
2023/07/10 00:54:04;;;;;;;0.00;0.00;;;;;;;20.34;100.00;96881.25;5059645;28;20036;-78
2023/07/10 00:56:52;;;;;;;0.00;0.00;;;;;;;20.38;100.00;96890.41;5059959;28;20043;-78
2023/07/10 00:59:40;;;;;;;0.00;0.00;;;;;;;20.08;100.00;96880.91;5073029;28;20203;-79
2023/07/10 01:02:27;;;;;;;0.00;0.00;;;;;;;20.08;100.00;96891.78;5048784;28;20039;-79
2023/07/10 01:05:15;;;;;;;0.00;0.00;;;;;;;20.19;100.00;96890.47;5073953;28;20036;-79
2023/07/10 01:08:01;;;;;;;0.00;0.00;;;;;;;19.99;100.00;96888.13;5071790;28;20040;-79
2023/07/10 01:10:47;;;;;;;0.00;0.00;;;;;;;20.10;100.00;96891.47;5072490;28;20040;-79
2023/07/10 01:13:37;;;;;;;0.00;0.00;;;;;;;20.16;100.00;96887.56;5058449;28;20074;-79
2023/07/10 01:16:25;;;;;;;0.00;0.00;;;;;;;20.11;100.00;96891.19;5074171;28;20067;-78
2023/07/10 01:19:24;;;;;;;0.00;0.00;;;;;;;20.16;100.00;96887.56;5059782;28;20109;-78
2023/07/10 01:22:09;;;;;;;0.00;0.00;;;;;;;20.00;100.00;96895.19;5071135;28;20043;-78
2023/07/10 01:24:55;;;;;;;0.00;0.00;;;;;;;20.03;100.00;96894.59;5059301;28;20035;-79
2023/07/10 01:27:41;;;;;;;0.00;0.00;;;;;;;19.86;100.00;96897.06;5058123;28;20115;-78
2023/07/10 01:30:33;;;;;;;0.00;0.00;;;;;;;19.73;100.00;96901.31;5073670;28;20039;-79
2023/07/10 01:33:24;;;;;;;0.03;0.03;;;;;;;19.63;100.00;96913.16;5058775;28;20701;-79
2023/07/10 01:36:14;;;;;;;0.00;0.00;;;;;;;19.67;100.00;96914.16;5073673;28;20767;-78
2023/07/10 01:39:43;;;;;;;0.00;0.00;;;;;;;19.79;100.00;96921.06;5071353;28;20948;-78
2023/07/10 01:42:29;;;;;;;0.00;0.00;;;;;;;19.84;100.00;96918.25;5056539;28;20812;-79
2023/07/10 01:45:14;;;;;;;0.00;0.00;;;;;;;19.83;100.00;96906.59;5058259;28;20028;-79
2023/07/10 01:48:00;;;;;;;0.00;0.00;;;;;;;19.69;100.00;96903.03;5071444;28;20146;-79
2023/07/10 01:50:46;;;;;;;0.00;0.00;;;;;;;19.62;100.00;96910.75;5070676;28;20047;-79
2023/07/10 01:53:32;;;;;;;0.00;0.00;;;;;;;19.44;100.00;96906.91;5057214;28;20123;-79
2023/07/10 01:56:20;;;;;;;0.00;0.00;;;;;;;19.36;100.00;96918.41;5058140;28;20561;-80
2023/07/10 01:59:06;;;;;;;0.00;0.00;;;;;;;19.36;100.00;96923.84;5057169;28;20733;-79
2023/07/10 02:01:54;;;;;;;0.00;0.00;;;;;;;19.44;100.00;96932.13;5055370;28;20031;-79
2023/07/10 02:04:40;;;;;;;0.00;0.00;;;;;;;19.60;100.00;96924.59;5053816;28;20093;-79
2023/07/10 02:07:26;;;;;;;0.10;0.10;;;;;;;19.74;100.00;96922.75;5072849;28;20043;-79
2023/07/10 02:10:12;;;;;;;0.03;0.03;;;;;;;19.77;100.00;96918.66;5067654;28;20651;-79
2023/07/10 02:12:59;;;;;;;0.00;0.00;;;;;;;19.92;100.00;96931.16;5057083;28;20048;-79
2023/07/10 02:15:45;;;;;;;0.10;0.10;;;;;;;20.00;100.00;96933.22;5053517;28;20080;-79
2023/07/10 02:18:31;;;;;;;0.08;0.08;;;;;;;20.02;100.00;96931.81;5057033;28;20042;-79
2023/07/10 02:21:17;;;;;;;0.10;0.10;;;;;;;20.04;100.00;96934.22;5058443;28;20119;-79
2023/07/10 02:24:03;;;;;;;0.00;0.00;;;;;;;20.06;100.00;96928.47;5071611;28;20024;-79
2023/07/10 02:26:49;;;;;;;0.00;0.00;;;;;;;20.00;100.00;96923.16;5070257;28;20077;-80
2023/07/10 02:29:35;;;;;;;0.05;0.05;;;;;;;19.80;100.00;96923.47;5071832;28;20044;-79
2023/07/10 02:32:22;;;;;;;0.00;0.00;;;;;;;19.78;100.00;96935.75;5070756;28;20039;-79
2023/07/10 02:35:08;;;;;;;0.05;0.05;;;;;;;19.79;100.00;96931.94;5072993;28;20064;-80
2023/07/10 02:37:56;;;;;;;0.08;0.08;;;;;;;19.83;100.00;96927.50;5056256;28;20375;-79
2023/07/10 02:40:45;;;;;;;0.00;0.00;;;;;;;19.83;100.00;96927.50;5069813;28;20059;-79
2023/07/10 02:43:30;;;;;;;0.00;0.00;;;;;;;19.84;100.00;96931.81;5055700;28;21049;-79
2023/07/10 02:46:16;;;;;;;0.00;0.00;;;;;;;19.82;100.00;96920.47;5072938;28;20032;-79
2023/07/10 02:49:02;;;;;;;0.00;0.00;;;;;;;19.81;100.00;96916.13;5071432;28;20036;-79
2023/07/10 02:51:48;;;;;;;0.00;0.00;;;;;;;19.75;100.00;96916.22;5069072;28;20040;-79
2023/07/10 02:54:34;;;;;;;0.00;0.00;;;;;;;19.73;100.00;96921.13;5056164;28;20032;-79
2023/07/10 02:57:20;;;;;;;0.03;0.03;;;;;;;19.74;100.00;96903.75;5050537;28;20036;-79
2023/07/10 03:00:06;;;;;;;0.00;0.00;;;;;;;19.74;100.00;96905.66;5071280;28;20047;-80
2023/07/10 03:02:56;;;;;;;0.00;0.00;;;;;;;19.76;100.00;96912.38;5055075;28;20047;-78
2023/07/10 03:05:42;;;;;;;0.00;0.00;;;;;;;19.59;100.00;96906.69;5071551;28;20032;-79
2023/07/10 03:08:29;;;;;;;0.10;0.10;;;;;;;19.65;100.00;96893.84;5052906;28;20708;-79
2023/07/10 03:11:17;;;;;;;0.10;0.10;;;;;;;19.73;100.00;96904.84;5069709;28;20035;-79
2023/07/10 03:14:03;;;;;;;0.00;0.00;;;;;;;19.70;100.00;96902.72;5070485;28;20050;-79
2023/07/10 03:16:49;;;;;;;0.00;0.00;;;;;;;19.71;100.00;96896.19;5069326;28;20569;-79
2023/07/10 03:19:34;;;;;;;0.10;0.10;;;;;;;19.59;100.00;96893.13;5057049;28;20050;-79
2023/07/10 03:22:20;;;;;;;0.00;0.00;;;;;;;19.35;100.00;96893.19;5069982;28;20128;-79
2023/07/10 03:25:07;;;;;;;0.00;0.00;;;;;;;19.06;100.00;96903.38;5056001;28;20090;-79
2023/07/10 03:27:52;;;;;;;0.10;0.10;;;;;;;19.01;100.00;96901.53;5070640;28;20044;-79
2023/07/10 03:30:40;;;;;;;0.00;0.00;;;;;;;19.10;100.00;96899.78;5073908;28;20040;-79
2023/07/10 03:33:26;;;;;;;0.00;0.00;;;;;;;19.20;100.00;96893.41;5074013;28;20075;-79
2023/07/10 03:36:12;;;;;;;0.10;0.10;;;;;;;19.11;100.00;96912.25;5074418;28;20036;-79
2023/07/10 03:38:58;;;;;;;0.10;0.10;;;;;;;19.08;100.00;96906.63;5049124;28;20104;-78
2023/07/10 03:41:44;;;;;;;0.10;0.10;;;;;;;19.12;100.00;96913.84;5055235;28;20052;-79
2023/07/10 03:44:29;;;;;;;0.10;0.10;;;;;;;19.11;100.00;96911.44;5073244;28;20036;-78
2023/07/10 03:47:15;;;;;;;0.10;0.10;;;;;;;19.04;100.00;96919.94;5072202;28;20718;-79
2023/07/10 03:50:01;;;;;;;0.10;0.10;;;;;;;19.12;100.00;96908.44;5071374;28;20599;-78
2023/07/10 03:52:47;;;;;;;0.10;0.10;;;;;;;19.19;100.00;96924.34;5070195;28;20063;-78
2023/07/10 03:55:33;;;;;;;0.10;0.10;;;;;;;19.16;100.00;96920.31;5069882;28;20040;-78
2023/07/10 03:58:30;;;;;;;0.10;0.10;;;;;;;19.18;100.00;96934.41;5069504;28;20054;-79
2023/07/10 04:01:16;;;;;;;0.00;0.00;;;;;;;19.18;100.00;96933.59;5070024;28;20089;-79
2023/07/10 04:04:02;;;;;;;0.00;0.00;;;;;;;19.20;100.00;96937.63;5071725;28;20071;-79
2023/07/10 04:06:48;;;;;;;0.08;0.08;;;;;;;19.24;100.00;96946.00;5054140;28;20035;-78
2023/07/10 04:09:34;;;;;;;0.00;0.00;;;;;;;19.28;100.00;96955.16;5072114;28;20760;-78
2023/07/10 04:12:20;;;;;;;0.08;0.08;;;;;;;19.29;100.00;96945.09;5071962;28;20044;-78
2023/07/10 04:15:06;;;;;;;0.00;0.00;;;;;;;19.33;100.00;96949.66;5072851;28;20544;-78
2023/07/10 04:17:51;;;;;;;0.00;0.00;;;;;;;19.35;100.00;96939.31;5071444;28;20770;-78
2023/07/10 04:20:37;;;;;;;0.10;0.10;;;;;;;19.42;100.00;96953.31;5072084;28;20063;-79
2023/07/10 04:23:24;;;;;;;0.00;0.00;;;;;;;19.44;100.00;96936.75;5072049;28;20924;-78
2023/07/10 04:26:15;;;;;;;0.10;0.10;;;;;;;19.46;100.00;96943.50;5057940;28;20028;-78
2023/07/10 04:29:04;;;;;;;0.10;0.10;;;;;;;19.49;100.00;96942.09;5073013;28;21021;-78
2023/07/10 04:31:50;;;;;;;0.10;0.10;;;;;;;19.49;100.00;96933.97;5054828;28;20044;-79
2023/07/10 04:34:36;;;;;;;0.10;0.10;;;;;;;19.52;100.00;96938.78;5057194;28;20436;-79
2023/07/10 04:37:22;;;;;;;0.03;0.03;;;;;;;19.59;100.00;96946.59;5072447;28;20529;-78
2023/07/10 04:40:08;;;;;;;0.08;0.08;;;;;;;19.55;100.00;96942.84;5072222;28;20044;-79
2023/07/10 04:42:54;;;;;;;0.10;0.10;;;;;;;19.53;100.00;96940.41;5051002;28;20863;-79
2023/07/10 04:45:40;;;;;;;0.00;0.00;;;;;;;19.60;100.00;96953.63;5049567;28;20640;-79
2023/07/10 04:48:30;;;;;;;0.00;0.00;;;;;;;19.63;100.00;96948.44;5046805;28;20121;-79
2023/07/10 04:51:17;;;;;;;0.00;0.00;;;;;;;19.66;100.00;96966.03;5051250;28;20790;-79
2023/07/10 04:54:03;;;;;;;0.10;0.10;;;;;;;19.62;100.00;96963.13;5048100;28;20044;-80
2023/07/10 04:56:50;;;;;;;0.00;0.00;;;;;;;19.54;100.00;96962.94;5037262;28;20462;-80
2023/07/10 04:59:36;;;;;;;0.00;0.00;;;;;;;19.46;100.00;96978.00;5050006;28;20691;-80
2023/07/10 05:02:22;;;;;;;0.10;0.10;;;;;;;19.43;100.00;96973.13;5048242;28;20068;-79
2023/07/10 05:05:08;;;;;;;0.05;0.05;;;;;;;19.44;100.00;96972.03;5035087;28;20155;-79
2023/07/10 05:07:54;;;;;;;0.00;0.00;;;;;;;19.41;100.00;96976.13;5050228;28;20074;-78
2023/07/10 05:10:43;;;;;;;0.00;0.00;;;;;;;19.46;100.00;96973.38;5054278;28;20044;-78
2023/07/10 05:13:29;;;;;;;0.10;0.10;;;;;;;19.48;100.00;96978.50;5051603;28;20049;-78
2023/07/10 05:16:16;;;;;;;0.00;0.00;;;;;;;19.44;100.00;96978.25;5054234;28;20123;-79
2023/07/10 05:19:02;;;;;;;0.00;0.00;;;;;;;19.45;100.00;96984.50;5051821;28;20032;-78
2023/07/10 05:21:48;;;;;;;0.05;0.05;;;;;;;19.48;100.00;96992.88;5053857;28;20165;-78
2023/07/10 05:24:34;;;;;;;0.00;0.00;;;;;;;19.38;100.00;96986.78;5053114;28;20714;-78
2023/07/10 05:27:20;;;;;;;0.10;0.10;;;;;;;19.31;100.00;96995.28;5054090;28;20089;-78
2023/07/10 05:30:07;;;;;;;0.10;0.10;;;;;;;19.33;100.00;97006.63;5038460;28;20503;-79
2023/07/10 05:32:53;;;;;;;0.00;0.00;;;;;;;19.34;100.00;97015.59;5039086;28;20048;-79
2023/07/10 05:35:48;;;;;;;0.10;0.10;;;;;;;19.29;100.00;97021.06;5025650;28;20040;-79
2023/07/10 05:38:34;;;;;;;0.10;0.10;;;;;;;19.30;100.00;97011.81;5052597;28;20515;-79
2023/07/10 05:41:22;;;;;;;0.10;0.10;;;;;;;19.28;100.00;97008.59;5063011;28;20516;-79
2023/07/10 05:44:07;;;;;;;0.00;0.00;;;;;;;19.29;100.00;97016.44;5073046;28;20043;-79
2023/07/10 05:46:56;;;;;;;0.00;0.00;;;;;;;19.24;100.00;97023.84;5058883;28;20040;-78
2023/07/10 05:49:41;;;;;;;0.00;0.00;;;;;;;19.31;100.00;97027.84;5074207;28;20044;-80
2023/07/10 05:52:27;;;;;;;0.10;0.10;;;;;;;19.30;100.00;97028.09;5060118;28;20067;-80
2023/07/10 05:55:13;;;;;;;0.08;0.00;;;;;;;19.29;100.00;97029.19;5073396;28;20180;-80
2023/07/10 05:57:59;;;;;;;0.08;0.08;;;;;;;19.26;100.00;97030.59;5073124;28;20448;-80
2023/07/10 06:00:47;;;;;;;0.00;0.00;;;;;;;19.07;100.00;97044.13;5057914;28;20108;-80
2023/07/10 06:03:33;;;;;;;0.10;0.10;;;;;;;18.95;100.00;97037.47;5072254;28;20032;-79
2023/07/10 06:06:19;;;;;;;0.00;0.00;;;;;;;18.89;100.00;97048.38;5072022;28;20040;-80
2023/07/10 06:09:07;;;;;;;0.10;0.10;;;;;;;18.86;100.00;97045.44;5072474;28;20032;-80
2023/07/10 06:11:53;;;;;;;0.10;0.10;;;;;;;18.78;100.00;97056.91;5073978;28;20042;-80
2023/07/10 06:14:39;;;;;;;0.10;0.10;;;;;;;18.76;100.00;97059.09;5073970;28;20051;-80
2023/07/10 06:17:25;;;;;;;0.10;0.10;;;;;;;18.82;100.00;97053.31;5058949;28;20851;-79
2023/07/10 06:20:11;;;;;;;0.10;0.10;;;;;;;18.91;100.00;97042.69;5057062;28;20036;-80
2023/07/10 06:22:57;;;;;;;0.10;0.10;;;;;;;19.00;100.00;97042.84;5072226;28;20054;-79
2023/07/10 06:25:44;;;;;;;0.00;0.00;;;;;;;19.23;100.00;97049.38;5072920;28;20036;-77
2023/07/10 06:28:31;;;;;;;0.03;0.03;;;;;;;19.29;100.00;97048.19;5072924;28;20048;-78
2023/07/10 06:31:17;;;;;;;0.10;0.10;;;;;;;19.69;100.00;97045.00;5069854;28;20047;-78
2023/07/10 06:34:03;;;;;;;0.10;0.10;;;;;;;19.66;100.00;97040.16;5051863;28;20043;-78
2023/07/10 06:36:49;;;;;;;0.10;0.10;;;;;;;19.37;100.00;97055.69;5071197;28;20763;-78
2023/07/10 06:39:34;;;;;;;0.08;0.08;;;;;;;19.34;100.00;97056.28;5059212;28;20753;-78
2023/07/10 06:42:20;;;;;;;0.10;0.10;;;;;;;19.26;100.00;97060.44;5070810;28;20073;-78
2023/07/10 06:45:11;;;;;;;0.03;0.03;;;;;;;19.10;100.00;97075.28;5059276;28;20572;-78
2023/07/10 06:47:56;;;;;;;0.10;0.10;;;;;;;19.01;100.00;97074.28;5072585;28;20044;-80
2023/07/10 06:50:50;;;;;;;0.10;0.10;;;;;;;18.86;100.00;97078.78;5072503;28;20051;-79
2023/07/10 06:53:36;;;;;;;0.10;0.10;;;;;;;18.72;100.00;97077.81;5073221;28;20036;-79
2023/07/10 06:56:21;;;;;;;0.08;0.08;;;;;;;18.75;100.00;97081.84;5071519;28;20120;-79
2023/07/10 06:59:07;;;;;;;0.10;0.10;;;;;;;18.91;100.00;97070.59;5071015;28;20097;-79
2023/07/10 07:01:53;;;;;;;0.10;0.10;;;;;;;18.94;100.00;97085.47;5068716;28;20036;-79
2023/07/10 07:04:40;;;;;;;0.10;0.10;;;;;;;18.99;100.00;97079.19;5071018;28;20039;-79
2023/07/10 07:07:26;;;;;;;0.10;0.10;;;;;;;19.10;100.00;97084.22;5071481;28;20036;-78
2023/07/10 07:10:13;;;;;;;0.10;0.10;;;;;;;19.09;100.00;97085.31;5072458;28;20651;-79
2023/07/10 07:12:59;;;;;;;0.10;0.10;;;;;;;18.99;100.00;97093.56;5071867;28;20048;-79
2023/07/10 07:15:49;;;;;;;0.00;0.00;;;;;;;18.89;100.00;97091.75;5072366;28;20097;-79
2023/07/10 07:18:35;;;;;;;0.10;0.10;;;;;;;18.64;100.00;97098.19;5060606;28;20552;-79
2023/07/10 07:21:21;;;;;;;0.10;0.10;;;;;;;18.52;100.00;97091.50;5069306;28;20039;-79
2023/07/10 07:24:07;;;;;;;0.00;0.00;;;;;;;18.50;100.00;97091.81;5068212;28;20733;-78
2023/07/10 07:26:52;;;;;;;0.10;0.10;;;;;;;18.41;100.00;97104.34;5071302;28;20040;-79
2023/07/10 07:29:41;;;;;;;0.10;0.10;;;;;;;18.55;100.00;97088.25;5056081;28;20036;-79
2023/07/10 07:32:26;;;;;;;0.10;0.10;;;;;;;18.65;100.00;97096.28;5067602;28;20032;-78
2023/07/10 07:35:13;;;;;;;0.10;0.10;;;;;;;18.85;100.00;97104.28;5069088;28;20044;-79
2023/07/10 07:37:59;;;;;;;0.10;0.10;;;;;;;18.92;100.00;97102.03;5069783;28;20104;-79
2023/07/10 07:40:45;;;;;;;0.10;0.10;;;;;;;19.05;100.00;97105.97;5069019;28;20066;-79
2023/07/10 07:43:33;;;;;;;0.10;0.10;;;;;;;19.33;100.00;97103.50;5071200;28;20612;-79
2023/07/10 07:46:18;;;;;;;0.10;0.10;;;;;;;19.65;100.00;97106.41;5069878;28;20040;-79
2023/07/10 07:49:04;;;;;;;0.10;0.10;;;;;;;19.82;100.00;97111.34;5068766;28;20047;-79
2023/07/10 07:51:52;;;;;;;0.10;0.10;;;;;;;19.98;100.00;97101.06;5068733;28;20461;-79
2023/07/10 07:54:37;;;;;;;0.10;0.10;;;;;;;20.03;100.00;97109.16;5069534;28;20055;-79
2023/07/10 07:57:23;;;;;;;0.10;0.10;;;;;;;20.18;100.00;97108.94;5048190;28;20147;-79
2023/07/10 08:00:10;;;;;;;0.08;0.08;;;;;;;20.20;100.00;97114.88;5068465;28;20102;-79
2023/07/10 08:02:58;;;;;;;0.10;0.10;;;;;;;20.09;100.00;97116.13;5068791;28;20089;-80
2023/07/10 08:05:45;;;;;;;0.03;0.03;;;;;;;20.13;100.00;97100.84;5069946;28;20040;-80
2023/07/10 08:08:31;;;;;;;0.08;0.08;;;;;;;20.39;100.00;97104.00;5054878;28;20043;-79
2023/07/10 08:11:16;;;;;;;0.10;0.10;;;;;;;20.50;100.00;97093.81;5070184;28;20042;-78
2023/07/10 08:14:04;;;;;;;0.10;0.10;;;;;;;20.53;100.00;97104.88;5053866;28;20044;-78
2023/07/10 08:16:50;;;;;;;0.20;0.20;;;;;;;21.04;100.00;97093.13;5035740;28;20093;-78
2023/07/10 08:19:36;;;;;;;0.10;0.10;;;;;;;21.49;100.00;97092.59;5053638;28;21460;-79
2023/07/10 08:22:22;;;;;;;0.05;0.05;;;;;;;21.28;100.00;97093.00;5070405;28;20086;-78
2023/07/10 08:25:09;;;;;;;0.17;0.17;;;;;;;21.60;100.00;97088.53;5067713;28;20510;-78
2023/07/10 08:27:57;;;;;;;0.10;0.10;;;;;;;22.07;100.00;97092.69;5067814;28;20082;-78
2023/07/10 08:30:44;;;;;;;0.10;0.10;;;;;;;22.10;100.00;97081.22;5068505;28;20095;-79
2023/07/10 08:33:30;;;;;;;0.10;0.10;;;;;;;22.16;100.00;97087.34;5051613;28;20044;-77
2023/07/10 08:36:15;;;;;;;0.10;0.10;;;;;;;22.11;100.00;97087.47;5068997;28;20036;-78
2023/07/10 08:39:02;;;;;;;0.15;0.15;;;;;;;22.26;100.00;97068.06;5065208;28;20063;-77
2023/07/10 08:41:54;;;;;;;0.10;0.10;;;;;;;22.16;100.00;97081.88;5070743;28;20080;-78
2023/07/10 08:44:40;;;;;;;0.03;0.03;;;;;;;22.40;100.00;97093.31;5070051;28;20036;-77
2023/07/10 08:47:34;;;;;;;0.10;0.10;;;;;;;22.89;100.00;97098.97;5049698;28;20028;-78
2023/07/10 08:50:29;;;;;;;0.10;0.10;;;;;;;23.10;100.00;97096.50;5064670;28;20039;-78
2023/07/10 08:53:26;;;;;;;0.10;0.10;;;;;;;22.37;100.00;97095.84;5072769;28;20036;-78
2023/07/10 08:56:14;;;;;;;0.10;0.10;;;;;;;22.17;100.00;97102.56;5056312;28;20127;-78
2023/07/10 08:59:28;;;;;;;0.10;0.10;;;;;;;22.67;100.00;97099.78;5072649;28;20773;-78
2023/07/10 09:02:42;;;;;;;0.10;0.10;;;;;;;23.07;100.00;97101.47;5073377;28;20036;-78
2023/07/10 09:05:31;;;;;;;0.10;0.10;;;;;;;23.14;100.00;97101.03;5071551;28;20165;-78
2023/07/10 09:08:18;;;;;;;0.10;0.10;;;;;;;22.92;100.00;97104.59;5070395;28;20047;-79
2023/07/10 09:11:05;;;;;;;0.10;0.10;;;;;;;23.44;100.00;97107.59;5057169;28;20288;-78
2023/07/10 09:14:05;;;;;;;0.10;0.10;;;;;;;23.89;100.00;97101.94;5052139;28;20101;-78
2023/07/10 09:16:54;;;;;;;0.10;0.10;;;;;;;23.76;100.00;97091.97;5042076;28;20126;-78
2023/07/10 09:19:42;;;;;;;0.13;0.13;;;;;;;23.62;100.00;97112.00;5069528;28;20407;-77
2023/07/10 09:22:32;;;;;;;0.10;0.10;;;;;;;23.10;100.00;97121.06;5049303;28;20499;-79
2023/07/10 09:25:20;;;;;;;0.15;0.15;;;;;;;23.29;100.00;97108.00;5056861;28;20032;-78
2023/07/10 09:28:06;;;;;;;0.10;0.10;;;;;;;23.69;100.00;97108.81;5071318;28;20048;-77
2023/07/10 09:31:01;;;;;;;0.00;0.00;;;;;;;23.52;100.00;97100.56;5068978;28;20123;-78
2023/07/10 09:33:52;;;;;;;0.10;0.10;;;;;;;23.69;100.00;97105.28;5052036;28;20044;-78
2023/07/10 09:36:38;;;;;;;0.10;0.10;;;;;;;24.37;100.00;97101.06;5035186;28;20040;-78
2023/07/10 09:39:28;;;;;;;0.10;0.10;;;;;;;24.61;100.00;97104.13;5066325;28;20125;-77
2023/07/10 09:42:20;;;;;;;0.10;0.10;;;;;;;24.37;100.00;97095.59;5043272;28;20514;-79
2023/07/10 09:45:08;;;;;;;0.10;0.10;;;;;;;24.54;100.00;97100.25;5050030;28;20127;-78
2023/07/10 09:47:54;;;;;;;0.00;0.00;;;;;;;24.44;100.00;97101.41;5048536;28;20900;-78
2023/07/10 09:50:46;;;;;;;0.10;0.10;;;;;;;24.54;100.00;97103.81;5050746;28;20048;-77
2023/07/10 09:53:47;;;;;;;0.10;0.10;;;;;;;24.75;100.00;97101.22;5049312;28;20359;-77
2023/07/10 09:56:38;;;;;;;0.10;0.10;;;;;;;24.86;100.00;97101.66;5050395;28;20032;-78
2023/07/10 09:59:30;;;;;;;;;;;;;;;24.98;100.00;97107.25;5047265;28;20071;-78
2023/07/10 10:02:32;;;;;;;0.10;0.10;;;;;;;24.55;100.00;97105.41;5044529;28;19925;-77
2023/07/10 10:05:19;;;;;;;0.00;0.00;;;;;;;24.78;100.00;97111.50;5052587;28;20765;-78
2023/07/10 10:08:20;;;;;;;0.00;0.00;;;;;;;24.48;100.00;97110.56;5046834;28;20052;-77
2023/07/10 10:11:09;;;;;;;0.10;0.10;;;;;;;23.76;100.00;97114.63;5048031;28;20102;-77
2023/07/10 10:14:00;;;;;;;0.10;0.10;;;;;;;24.29;100.00;97105.38;5047887;28;20041;-78
2023/07/10 10:16:54;;;;;;;0.10;0.10;;;;;;;24.12;100.00;97110.81;5024081;28;20557;-78
2023/07/10 10:19:49;;;;;;;0.00;0.00;;;;;;;24.19;100.00;97105.69;5049182;28;20048;-78
2023/07/10 10:22:35;;;;;;;0.10;0.10;;;;;;;25.11;100.00;97106.28;5049119;28;20577;-78
2023/07/10 10:25:32;;;;;;;0.10;0.10;;;;;;;25.63;100.00;97094.31;5048825;28;20040;-77
2023/07/10 10:28:44;;;;;;;0.10;0.10;;;;;;;25.58;100.00;97095.31;5049743;28;20036;-77
2023/07/10 10:31:44;;;;;;;0.10;0.10;;;;;;;25.83;100.00;97096.31;5048389;28;20064;-78
2023/07/10 10:34:30;;;;;;;0.20;0.20;;;;;;;25.45;100.00;97104.56;5048407;28;20048;-78
2023/07/10 10:37:27;;;;;;;0.15;0.15;;;;;;;25.69;100.00;97104.78;5050429;28;20314;-77
2023/07/10 10:40:25;;;;;;;0.10;0.10;;;;;;;25.98;100.00;97103.16;5049232;28;20036;-76
2023/07/10 10:43:33;;;;;;;0.20;0.20;;;;;;;26.24;100.00;97101.06;5047323;28;20047;-78
2023/07/10 10:46:34;;;;;;;0.00;0.00;;;;;;;25.75;100.00;97097.97;5047379;28;20048;-77
2023/07/10 10:49:38;;;;;;;0.05;0.05;;;;;;;26.02;100.00;97099.44;5050076;28;20143;-79
2023/07/10 10:52:44;;;;;;;0.10;0.10;;;;;;;26.22;100.00;97097.84;5049560;28;20119;-78
2023/07/10 10:55:34;;;;;;;0.10;0.10;;;;;;;26.93;100.00;97092.25;5048521;28;20070;-77
2023/07/10 10:58:41;;;;;;;0.10;0.10;;;;;;;27.25;100.00;97089.81;5048271;28;20062;-78
2023/07/10 11:01:42;;;;;;;0.10;0.10;;;;;;;26.70;100.00;97084.72;5050183;28;20123;-78
2023/07/10 11:04:46;;;;;;;0.05;0.05;;;;;;;26.25;100.00;97090.91;5049802;28;20059;-78
2023/07/10 11:07:33;;;;;;;0.00;0.00;;;;;;;25.70;100.00;97091.88;5049770;28;20048;-77
2023/07/10 11:10:41;;;;;;;0.10;0.10;;;;;;;26.75;98.10;97090.00;5047600;28;20055;-79
2023/07/10 11:13:33;;;;;;;0.10;0.10;;;;;;;27.48;92.89;97098.44;5045818;28;20845;-77
2023/07/10 11:16:19;;;;;;;0.10;0.10;;;;;;;27.66;94.22;97099.00;5061612;28;20036;-77
2023/07/10 11:19:08;;;;;;;0.05;0.05;;;;;;;27.28;93.98;97091.88;5049204;28;20043;-78
2023/07/10 11:21:54;;;;;;;0.00;0.00;;;;;;;26.65;100.00;97089.28;5047765;28;20072;-77
2023/07/10 11:24:48;;;;;;;0.13;0.13;;;;;;;27.21;96.21;97089.69;5048936;28;20727;-78
2023/07/10 11:27:41;;;;;;;0.10;0.10;;;;;;;27.99;94.61;97096.94;5049257;28;20547;-77
2023/07/10 11:30:33;;;;;;;0.00;0.00;;;;;;;28.26;92.04;97086.34;5037768;28;20502;-78
2023/07/10 11:33:20;;;;;;;0.10;0.10;;;;;;;29.73;82.80;97077.31;5049516;28;20049;-78
2023/07/10 11:36:11;;;;;;;0.15;0.15;;;;;;;30.26;78.77;97077.75;5048261;28;20133;-78
2023/07/10 11:38:58;;;;;;;;;;;;;;;28.92;80.83;97077.63;5048618;28;20902;-78
2023/07/10 11:41:50;;;;;;;0.17;0.17;;;;;;;30.01;79.96;97066.94;5059529;28;20014;-79
2023/07/10 11:44:40;;;;;;;0.20;0.20;;;;;;;33.76;60.62;97063.13;5070488;28;20498;-79
2023/07/10 11:47:29;;;;;;;0.10;0.10;;;;;;;33.25;58.94;97066.69;5068245;28;20043;-78
2023/07/10 11:50:27;;;;;;;0.10;0.10;;;;;;;35.02;45.87;97073.75;5054599;28;20978;-78
2023/07/10 11:53:13;;;;;;;0.13;0.13;;;;;;;33.20;48.99;97069.78;5059395;28;20494;-78
2023/07/10 11:56:02;;;;;;;0.10;0.10;;;;;;;31.78;61.36;97079.06;5068810;28;20044;-78
2023/07/10 11:58:48;;;;;;;0.20;0.20;;;;;;;32.25;64.52;97083.28;5053262;28;20039;-78
2023/07/10 12:01:34;;;;;;;0.10;0.10;;;;;;;32.71;58.62;97070.84;5051576;28;20040;-78
2023/07/10 12:04:22;;;;;;;0.20;0.20;;;;;;;32.95;54.17;97068.75;5067987;28;20040;-78
2023/07/10 12:07:12;;;;;;;0.20;0.20;;;;;;;34.88;45.37;97070.91;5068552;28;20047;-78
2023/07/10 12:09:59;;;;;;;0.10;0.10;;;;;;;38.43;34.91;97062.28;5069959;28;20044;-78
2023/07/10 12:12:45;;;;;;;0.10;0.10;;;;;;;39.34;29.57;97066.28;5069740;28;20493;-78
2023/07/10 12:15:32;;;;;;;0.00;0.00;;;;;;;33.24;44.55;97078.16;5054654;28;20075;-78
2023/07/10 12:18:38;;;;;;;0.10;0.10;;;;;;;37.40;31.35;97080.00;5071855;28;20032;-79
2023/07/10 12:21:24;;;;;;;0.20;0.20;;;;;;;39.65;27.96;97089.41;5071629;28;20145;-78
2023/07/10 12:24:16;;;;;;;0.20;0.20;;;;;;;40.57;25.99;97069.34;5056489;28;20039;-78
2023/07/10 12:27:02;;;;;;;0.10;0.10;;;;;;;41.42;25.24;97078.72;5071626;28;20032;-79
2023/07/10 12:29:52;;;;;;;0.10;0.10;;;;;;;41.02;24.71;97066.00;5074512;28;20908;-78
2023/07/10 12:32:38;;;;;;;0.00;0.00;;;;;;;41.40;24.77;97078.38;5053163;28;20040;-79
2023/07/10 12:35:38;;;;;;;0.10;0.10;;;;;;;42.04;23.26;97063.94;5074347;28;20040;-79
2023/07/10 12:38:24;;;;;;;0.10;0.10;;;;;;;42.37;23.06;97064.66;5056528;28;20044;-80
2023/07/10 12:41:10;;;;;;;0.13;0.13;;;;;;;42.80;22.94;97062.22;5071527;28;20044;-80
2023/07/10 12:44:00;;;;;;;0.10;0.10;;;;;;;43.13;22.33;97053.59;5057111;28;20123;-80
2023/07/10 12:46:51;;;;;;;0.10;0.10;;;;;;;42.99;22.17;97063.28;5056333;28;20478;-80
2023/07/10 12:49:37;;;;;;;0.15;0.15;;;;;;;43.78;21.14;97066.41;5046787;28;20036;-80
2023/07/10 12:52:29;;;;;;;0.10;0.10;;;;;;;43.42;21.08;97059.13;5074787;28;20027;-80
2023/07/10 12:55:17;;;;;;;0.10;0.10;;;;;;;44.52;20.09;97050.91;5074536;28;20655;-81
2023/07/10 12:58:03;;;;;;;0.17;0.17;;;;;;;44.59;20.07;97048.63;5058985;28;20486;-82
2023/07/10 13:00:58;;;;;;;0.13;0.13;;;;;;;44.05;20.08;97057.41;5057318;28;20584;-81
2023/07/10 13:03:44;;;;;;;0.10;0.10;;;;;;;43.72;20.32;97051.31;5045209;28;20052;-81
2023/07/10 13:06:32;;;;;;;0.10;0.10;;;;;;;44.00;19.72;97058.81;5058403;28;20976;-81